createdAt,value
2023-03-06T00:01:38.767Z,99722.53
2023-03-06T00:04:41.368Z,99751.94
2023-03-06T00:07:44.075Z,99746.38
2023-03-06T00:10:46.781Z,99748.78
2023-03-06T00:13:49.192Z,99744.16
2023-03-06T00:16:56.005Z,99751.22
2023-03-06T00:19:58.330Z,99726.81
2023-03-06T00:23:01.304Z,99741.69
2023-03-06T00:26:07.403Z,99746.94
2023-03-06T00:29:10.270Z,99733.72
2023-03-06T00:32:12.552Z,99740.94
2023-03-06T00:35:18.182Z,99712.28
2023-03-06T00:38:20.764Z,99706.88
2023-03-06T00:41:25.044Z,99729.06
2023-03-06T00:44:27.559Z,99704.41
2023-03-06T00:47:30.219Z,99722.66
2023-03-06T00:50:35.217Z,99734.37
2023-03-06T00:53:38.002Z,99708.56
2023-03-06T00:56:40.311Z,99710.81
2023-03-06T00:59:43.291Z,99694.25
2023-03-06T01:02:45.624Z,99678.25
2023-03-06T01:05:48.737Z,99696.81
2023-03-06T01:08:51.196Z,99713.41
2023-03-06T01:11:53.973Z,99719.28
2023-03-06T01:14:56.281Z,99705.13
2023-03-06T01:17:59.026Z,99683.19
2023-03-06T01:21:01.813Z,99683.06
2023-03-06T01:24:04.646Z,99676.50
2023-03-06T01:27:06.950Z,99695.25
2023-03-06T01:30:10.509Z,99698.09
2023-03-06T01:33:13.122Z,99701.31
2023-03-06T01:36:16.002Z,99676.50
2023-03-06T01:39:18.311Z,99662.00
2023-03-06T01:42:22.116Z,99662.62
2023-03-06T01:45:24.681Z,99686.06
2023-03-06T01:48:27.441Z,99688.91
2023-03-06T01:51:35.889Z,99668.84
2023-03-06T01:54:49.580Z,99686.38
2023-03-06T01:57:57.670Z,99659.56
2023-03-06T02:01:00.350Z,99679.88
2023-03-06T02:04:03.062Z,99677.81
2023-03-06T02:07:06.245Z,99677.28
2023-03-06T02:10:10.245Z,99654.88
2023-03-06T02:13:12.758Z,99659.91
2023-03-06T02:16:17.658Z,99677.66
2023-03-06T02:19:56.793Z,99664.94
2023-03-06T02:23:53.013Z,99656.75
2023-03-06T02:26:57.386Z,99674.19
2023-03-06T02:29:59.568Z,99671.13
2023-03-06T02:33:03.419Z,99678.22
2023-03-06T02:36:10.220Z,99676.66
2023-03-06T02:39:14.627Z,99647.84
2023-03-06T02:42:22.416Z,99663.66
2023-03-06T02:45:39.197Z,99677.97
2023-03-06T02:48:41.705Z,99673.13
2023-03-06T02:51:44.594Z,99652.94
2023-03-06T02:54:47.445Z,99677.19
2023-03-06T02:57:51.111Z,99678.78
2023-03-06T03:00:54.013Z,99680.69
2023-03-06T03:03:56.749Z,99680.81
2023-03-06T03:06:59.618Z,99656.47
2023-03-06T03:10:02.360Z,99672.38
2023-03-06T03:13:05.207Z,99680.81
2023-03-06T03:16:11.750Z,99679.94
2023-03-06T03:19:14.706Z,99679.44
2023-03-06T03:22:18.946Z,99642.41
2023-03-06T03:25:22.682Z,99651.34
2023-03-06T03:28:25.689Z,99663.34
2023-03-06T03:31:28.387Z,99643.00
2023-03-06T03:34:31.180Z,99636.56
2023-03-06T03:37:34.762Z,99661.72
2023-03-06T03:40:38.730Z,99642.87
2023-03-06T03:43:42.237Z,99664.94
2023-03-06T03:46:45.083Z,99666.25
2023-03-06T03:49:47.961Z,99626.06
2023-03-06T03:52:50.949Z,99643.37
2023-03-06T03:55:53.478Z,99627.16
2023-03-06T03:58:56.465Z,99654.03
2023-03-06T04:01:59.490Z,99638.25
2023-03-06T04:05:02.526Z,99629.06
2023-03-06T04:08:05.559Z,99656.25
2023-03-06T04:11:08.588Z,99656.03
2023-03-06T04:14:11.057Z,99631.75
2023-03-06T04:17:14.121Z,99659.63
2023-03-06T04:20:16.996Z,99654.78
2023-03-06T04:23:20.527Z,99638.31
2023-03-06T04:26:23.089Z,99637.53
2023-03-06T04:29:25.909Z,99667.94
2023-03-06T04:32:28.450Z,99665.69
2023-03-06T04:35:32.240Z,99657.91
2023-03-06T04:38:34.895Z,99652.94
2023-03-06T04:41:41.341Z,99629.59
2023-03-06T04:44:43.928Z,99655.53
2023-03-06T04:47:46.515Z,99635.59
2023-03-06T04:50:48.911Z,99648.38
2023-03-06T04:53:52.307Z,99623.66
2023-03-06T04:56:54.828Z,99626.03
2023-03-06T04:59:57.530Z,99625.94
2023-03-06T05:03:01.338Z,99647.75
2023-03-06T05:06:03.881Z,99620.22
2023-03-06T05:09:06.121Z,99651.78
2023-03-06T05:12:08.762Z,99643.44
2023-03-06T05:15:12.680Z,99649.44
2023-03-06T05:18:15.316Z,99646.03
2023-03-06T05:21:17.668Z,99644.94
2023-03-06T05:24:20.629Z,99655.63
2023-03-06T05:27:22.949Z,99654.81
2023-03-06T05:30:26.047Z,99649.16
2023-03-06T05:33:28.354Z,99643.09
2023-03-06T05:36:30.966Z,99630.81
2023-03-06T05:39:33.474Z,99652.88
2023-03-06T05:42:36.083Z,99628.59
2023-03-06T05:45:39.498Z,99640.97
2023-03-06T05:48:42.147Z,99641.66
2023-03-06T05:51:44.484Z,99655.19
2023-03-06T05:54:50.910Z,99664.63
2023-03-06T05:57:54.147Z,99654.53
2023-03-06T06:00:57.308Z,99659.53
2023-03-06T06:03:59.894Z,99643.44
2023-03-06T06:07:02.287Z,99662.56
2023-03-06T06:10:06.403Z,99671.56
2023-03-06T06:13:09.125Z,99641.66
2023-03-06T06:16:16.399Z,99640.84
2023-03-06T06:19:20.219Z,99649.34
2023-03-06T06:22:23.474Z,99665.00
2023-03-06T06:25:25.816Z,99661.59
2023-03-06T06:28:29.486Z,99609.91
2023-03-06T06:31:32.097Z,99636.66
2023-03-06T06:34:34.903Z,99657.19
2023-03-06T06:37:37.829Z,99651.25
2023-03-06T06:40:40.703Z,99688.44
2023-03-06T06:43:43.082Z,99653.19
2023-03-06T06:50:12.483Z,99662.41
2023-03-06T06:53:15.074Z,99671.78
2023-03-06T06:56:17.457Z,99667.09
2023-03-06T06:59:20.600Z,99649.53
2023-03-06T07:02:23.216Z,99658.81
2023-03-06T07:05:26.294Z,99676.09
2023-03-06T07:08:28.731Z,99612.34
2023-03-06T07:11:31.838Z,99679.50
2023-03-06T07:14:34.465Z,99686.41
2023-03-06T07:17:37.104Z,99664.38
2023-03-06T07:20:39.522Z,99668.56
2023-03-06T07:23:42.148Z,99686.97
2023-03-06T07:26:48.377Z,99705.91
2023-03-06T07:29:53.716Z,99676.44
2023-03-06T07:32:57.760Z,99669.00
2023-03-06T07:36:00.479Z,99702.22
2023-03-06T07:39:02.890Z,99706.09
2023-03-06T07:42:07.591Z,99692.75
2023-03-06T07:45:12.298Z,99677.88
2023-03-06T07:48:15.031Z,99703.91
2023-03-06T07:51:20.231Z,99691.66
2023-03-06T07:54:22.883Z,99709.00
2023-03-06T07:57:25.357Z,99700.00
2023-03-06T08:00:28.122Z,99689.69
2023-03-06T08:03:30.812Z,99714.47
2023-03-06T08:06:33.445Z,99644.25
2023-03-06T08:09:36.222Z,99722.97
2023-03-06T08:12:38.558Z,99716.72
2023-03-06T08:15:41.344Z,99713.66
2023-03-06T08:18:45.835Z,99727.50
2023-03-06T08:21:49.148Z,99720.25
2023-03-06T08:24:55.228Z,99691.91
2023-03-06T08:27:57.897Z,99696.25
2023-03-06T08:31:27.488Z,99715.09
2023-03-06T08:34:30.275Z,99688.69
2023-03-06T08:37:32.609Z,99690.38
2023-03-06T08:40:35.540Z,99678.50
2023-03-06T08:43:37.954Z,99690.41
2023-03-06T08:46:41.014Z,99708.50
2023-03-06T08:49:43.411Z,99711.25
2023-03-06T08:52:47.343Z,99683.78
2023-03-06T08:55:49.724Z,99714.88
2023-03-06T08:58:53.464Z,99695.91
2023-03-06T09:01:56.140Z,99683.56
2023-03-06T09:05:01.293Z,99677.97
2023-03-06T09:08:08.829Z,99709.00
2023-03-06T09:11:41.032Z,99685.38
2023-03-06T09:14:50.728Z,99599.50
2023-03-06T09:18:02.410Z,99692.91
2023-03-06T09:21:17.304Z,99679.81
2023-03-06T09:24:22.384Z,99642.19
2023-03-06T09:27:25.307Z,99670.78
2023-03-06T09:30:28.454Z,99690.53
2023-03-06T09:33:32.758Z,99623.94
2023-03-06T09:36:49.306Z,99640.56
2023-03-06T09:40:00.232Z,99666.50
2023-03-06T09:43:05.188Z,99584.03
2023-03-06T09:46:20.142Z,99673.47
2023-03-06T09:49:40.905Z,99650.97
2023-03-06T09:53:10.451Z,99674.72
2023-03-06T09:56:20.445Z,99652.94
2023-03-06T09:59:25.429Z,99660.16
2023-03-06T10:02:37.202Z,99657.59
2023-03-06T10:05:44.714Z,99654.34
2023-03-06T10:08:58.218Z,99641.09
2023-03-06T10:12:08.933Z,99667.19
2023-03-06T10:15:21.964Z,99658.31
2023-03-06T10:18:24.733Z,99656.66
2023-03-06T10:21:56.372Z,99634.72
2023-03-06T10:25:10.903Z,99666.25
2023-03-06T10:28:18.264Z,99650.87
2023-03-06T10:31:25.188Z,99660.19
2023-03-06T10:34:42.737Z,99621.72
2023-03-06T10:37:51.938Z,99568.00
2023-03-06T10:41:12.854Z,99645.34
2023-03-06T10:44:15.371Z,99634.47
2023-03-06T10:47:31.128Z,99631.12
2023-03-06T10:50:34.662Z,99622.78
2023-03-06T10:54:08.553Z,99613.19
2023-03-06T10:57:23.967Z,99602.69
2023-03-06T11:00:36.068Z,99597.22
2023-03-06T11:03:48.617Z,99603.53
2023-03-06T11:07:17.741Z,99591.75
2023-03-06T11:10:20.620Z,99589.00
2023-03-06T11:17:32.080Z,99566.91
2023-03-06T11:20:51.916Z,99554.50
2023-03-06T11:24:02.330Z,99536.19
2023-03-06T11:27:25.494Z,99528.59
2023-03-06T11:30:37.608Z,99525.25
2023-03-06T11:33:55.863Z,99527.44
2023-03-06T11:37:01.353Z,99527.03
2023-03-06T11:40:42.342Z,99522.34
2023-03-06T11:44:13.498Z,99508.72
2023-03-06T11:47:15.990Z,99503.63
2023-03-06T11:50:34.706Z,99508.59
2023-03-06T11:53:42.215Z,99449.47
2023-03-06T11:56:59.675Z,99482.56
2023-03-06T12:00:29.746Z,99455.78
2023-03-06T12:03:57.933Z,99473.69
2023-03-06T12:07:07.846Z,99472.09
2023-03-06T12:10:27.824Z,99458.03
2023-03-06T12:14:08.592Z,99440.56
2023-03-06T12:17:31.891Z,99395.34
2023-03-06T12:21:03.703Z,99449.91
2023-03-06T12:24:27.026Z,99445.69
2023-03-06T12:27:48.640Z,99451.50
2023-03-06T12:31:18.752Z,99436.19
2023-03-06T12:34:28.507Z,99443.53
2023-03-06T12:38:02.160Z,99430.50
2023-03-06T12:41:22.891Z,99445.91
2023-03-06T12:44:49.902Z,99438.94
2023-03-06T12:47:56.564Z,99430.25
2023-03-06T12:50:59.829Z,99426.41
2023-03-06T12:54:03.247Z,99428.84
2023-03-06T12:57:08.589Z,99432.25
2023-03-06T13:00:32.530Z,99386.84
2023-03-06T13:04:13.836Z,99423.81
2023-03-06T13:07:21.146Z,99408.13
2023-03-06T13:10:26.979Z,99429.66
2023-03-06T13:13:34.137Z,99423.00
2023-03-06T13:16:38.650Z,99419.16
2023-03-06T13:19:41.291Z,99407.91
2023-03-06T13:22:46.209Z,99394.69
2023-03-06T13:25:50.801Z,99405.94
2023-03-06T13:28:55.511Z,99378.34
2023-03-06T13:32:00.940Z,99400.19
2023-03-06T13:35:29.677Z,99395.22
2023-03-06T13:38:45.016Z,99394.41
2023-03-06T13:41:58.438Z,99392.56
2023-03-06T13:45:30.275Z,99382.56
2023-03-06T13:48:45.318Z,99377.44
2023-03-06T13:51:54.410Z,99358.22
2023-03-06T13:55:24.806Z,99388.53
2023-03-06T13:58:58.686Z,99355.16
2023-03-06T14:02:22.538Z,99372.09
2023-03-06T14:05:34.745Z,99369.53
2023-03-06T14:08:40.991Z,99358.59
2023-03-06T14:11:50.691Z,99357.00
2023-03-06T14:14:57.252Z,99355.63
2023-03-06T14:18:07.697Z,99329.53
2023-03-06T14:21:15.957Z,99357.19
2023-03-06T14:24:26.860Z,99334.75
2023-03-06T14:27:49.452Z,99358.66
2023-03-06T14:30:53.964Z,99318.25
2023-03-06T14:34:01.729Z,99332.66
2023-03-06T14:37:07.708Z,99340.28
2023-03-06T14:40:11.515Z,99351.47
2023-03-06T14:43:24.639Z,99352.00
2023-03-06T14:46:27.006Z,99332.34
2023-03-06T14:49:29.740Z,99351.63
2023-03-06T14:52:32.853Z,99306.22
2023-03-06T14:55:36.126Z,99350.50
2023-03-06T14:58:54.967Z,99346.94
2023-03-06T15:02:04.285Z,99325.47
2023-03-06T15:05:19.619Z,99318.66
2023-03-06T15:08:30.389Z,99317.84
2023-03-06T15:12:04.912Z,99332.53
2023-03-06T15:15:08.119Z,99314.91
2023-03-06T15:18:29.723Z,99330.66
2023-03-06T15:21:38.073Z,99332.28
2023-03-06T15:24:40.574Z,99310.97
2023-03-06T15:27:53.379Z,99325.19
2023-03-06T15:31:20.895Z,99319.47
2023-03-06T15:34:23.924Z,99312.38
2023-03-06T15:37:28.787Z,99307.25
2023-03-06T15:40:31.968Z,99221.50
2023-03-06T15:43:40.240Z,99322.41
2023-03-06T15:46:42.857Z,99317.63
2023-03-06T15:49:45.618Z,99322.00
2023-03-06T15:52:49.691Z,99313.03
2023-03-06T15:55:52.748Z,99320.13
2023-03-06T15:58:57.899Z,99324.53
2023-03-06T16:02:04.339Z,99323.47
2023-03-06T16:05:15.706Z,99330.97
2023-03-06T16:08:18.168Z,99306.97
2023-03-06T16:11:32.486Z,99303.97
2023-03-06T16:14:37.937Z,99329.97
2023-03-06T16:17:40.604Z,99317.53
2023-03-06T16:20:43.199Z,99336.50
2023-03-06T16:23:47.254Z,99331.41
2023-03-06T16:26:51.857Z,99310.59
2023-03-06T16:29:55.607Z,99337.37
2023-03-06T16:32:58.784Z,99282.28
2023-03-06T16:36:02.844Z,99336.31
2023-03-06T16:39:05.661Z,99344.03
2023-03-06T16:42:09.328Z,99343.88
2023-03-06T16:45:11.900Z,99322.09
2023-03-06T16:48:16.779Z,99328.38
2023-03-06T16:51:24.904Z,99332.22
2023-03-06T16:54:27.624Z,99357.75
2023-03-06T16:57:36.688Z,99324.03
2023-03-06T17:00:40.601Z,99350.22
2023-03-06T17:03:43.076Z,99352.59
2023-03-06T17:06:46.326Z,99337.75
2023-03-06T17:09:48.643Z,99322.66
2023-03-06T17:12:51.238Z,99350.88
2023-03-06T17:15:56.914Z,99298.94
2023-03-06T17:19:00.956Z,99323.31
2023-03-06T17:22:05.841Z,99352.81
2023-03-06T17:25:09.352Z,99330.87
2023-03-06T17:28:11.997Z,99348.69
2023-03-06T17:31:20.863Z,99324.78
2023-03-06T17:34:24.630Z,99349.16
2023-03-06T17:37:27.551Z,99344.53
2023-03-06T17:40:29.986Z,99351.88
2023-03-06T17:43:33.693Z,99344.53
2023-03-06T17:46:36.072Z,99336.63
2023-03-06T17:49:41.056Z,99315.16
2023-03-06T17:52:43.528Z,99332.16
2023-03-06T17:55:46.168Z,99320.16
2023-03-06T17:58:48.507Z,99345.81
2023-03-06T18:01:53.123Z,99338.44
2023-03-06T18:04:57.593Z,99341.66
2023-03-06T18:08:01.234Z,99345.66
2023-03-06T18:11:05.066Z,99344.84
2023-03-06T18:14:07.415Z,99352.25
2023-03-06T18:17:10.062Z,99355.44
2023-03-06T18:20:13.158Z,99345.00
2023-03-06T18:23:15.824Z,99329.28
2023-03-06T18:26:19.515Z,99338.06
2023-03-06T18:29:22.623Z,99316.91
2023-03-06T18:32:24.875Z,99344.66
2023-03-06T18:35:27.718Z,99330.06
2023-03-06T18:38:30.078Z,99324.97
2023-03-06T18:41:32.896Z,99321.16
2023-03-06T18:44:35.183Z,99315.34
2023-03-06T18:47:37.835Z,99347.44
2023-03-06T18:50:40.119Z,99351.75
2023-03-06T18:53:43.693Z,99323.72
2023-03-06T18:56:46.097Z,99342.28
2023-03-06T18:59:50.086Z,99340.06
2023-03-06T19:02:52.475Z,99325.28
2023-03-06T19:05:55.493Z,99319.84
2023-03-06T19:09:02.222Z,99339.88
2023-03-06T19:12:05.799Z,99333.28
2023-03-06T19:15:08.813Z,99317.91
2023-03-06T19:18:16.822Z,99324.31
2023-03-06T19:21:22.079Z,99320.13
2023-03-06T19:24:24.839Z,99315.63
2023-03-06T19:27:27.246Z,99324.16
2023-03-06T19:30:29.975Z,99337.16
2023-03-06T19:33:32.292Z,99320.16
2023-03-06T19:36:34.954Z,99333.78
2023-03-06T19:39:37.309Z,99312.25
2023-03-06T19:42:40.008Z,99322.25
2023-03-06T19:45:44.028Z,99302.97
2023-03-06T19:48:46.998Z,99334.44
2023-03-06T19:51:49.440Z,99325.09
2023-03-06T19:54:52.889Z,99332.31
2023-03-06T19:57:55.253Z,99339.06
2023-03-06T20:01:06.911Z,99304.06
2023-03-06T20:04:09.777Z,99292.84
2023-03-06T20:07:12.605Z,99300.06
2023-03-06T20:10:15.393Z,99323.00
2023-03-06T20:13:17.791Z,99310.19
2023-03-06T20:16:20.743Z,99321.91
2023-03-06T20:19:23.094Z,99324.47
2023-03-06T20:22:26.058Z,99320.31
2023-03-06T20:25:28.815Z,99315.00
2023-03-06T20:28:32.455Z,99287.75
2023-03-06T20:31:35.450Z,99279.41
2023-03-06T20:34:39.442Z,99298.66
2023-03-06T20:37:41.850Z,99321.59
2023-03-06T20:40:44.816Z,99309.88
2023-03-06T20:43:47.774Z,99303.78
2023-03-06T20:46:52.023Z,99307.78
2023-03-06T20:49:54.287Z,99308.44
2023-03-06T20:52:58.454Z,99340.38
2023-03-06T20:56:00.976Z,99344.25
2023-03-06T20:59:03.798Z,99338.00
2023-03-06T21:02:06.567Z,99339.75
2023-03-06T21:05:09.597Z,99304.91
2023-03-06T21:08:12.012Z,99334.94
2023-03-06T21:11:16.156Z,99311.50
2023-03-06T21:14:18.536Z,99301.06
2023-03-06T21:17:21.260Z,99281.81
2023-03-06T21:20:24.123Z,99327.38
2023-03-06T21:23:26.751Z,99334.47
2023-03-06T21:26:33.732Z,99320.81
2023-03-06T21:29:36.532Z,99316.00
2023-03-06T21:32:39.127Z,99318.72
2023-03-06T21:35:43.839Z,99299.31
2023-03-06T21:38:47.772Z,99330.78
2023-03-06T21:41:50.448Z,99308.63
2023-03-06T21:44:52.809Z,99329.78
2023-03-06T21:47:59.101Z,99334.62
2023-03-06T21:51:10.694Z,99291.44
2023-03-06T21:54:13.328Z,99339.09
2023-03-06T21:57:15.883Z,99305.06
2023-03-06T22:00:19.597Z,99334.00
2023-03-06T22:03:22.341Z,99326.09
2023-03-06T22:06:26.982Z,99303.78
2023-03-06T22:09:29.751Z,99306.87
2023-03-06T22:12:34.412Z,99327.22
2023-03-06T22:15:37.056Z,99324.47
2023-03-06T22:18:39.490Z,99328.66
2023-03-06T22:21:42.128Z,99298.31
2023-03-06T22:24:44.473Z,99322.41
2023-03-06T22:27:47.101Z,99320.31
2023-03-06T22:30:49.479Z,99303.62
2023-03-06T22:33:53.324Z,99326.28
2023-03-06T22:36:55.810Z,99320.00
2023-03-06T22:39:58.397Z,99296.06
2023-03-06T22:43:00.910Z,99294.94
2023-03-06T22:46:06.450Z,99293.50
2023-03-06T22:49:10.757Z,99296.56
2023-03-06T22:52:15.197Z,99323.37
2023-03-06T22:55:18.706Z,99315.19
2023-03-06T22:58:21.624Z,99329.78
2023-03-06T23:01:26.653Z,99316.00
2023-03-06T23:04:29.917Z,99312.94
2023-03-06T23:07:32.331Z,99330.63
2023-03-06T23:10:39.545Z,99331.72
2023-03-06T23:14:02.985Z,99308.31
2023-03-06T23:17:24.169Z,99311.19
2023-03-06T23:20:45.049Z,99329.63
2023-03-06T23:24:06.979Z,99328.81
2023-03-06T23:27:09.611Z,99326.72
2023-03-06T23:30:12.569Z,99336.38
2023-03-06T23:33:15.210Z,99304.44
2023-03-06T23:36:18.589Z,99320.00
2023-03-06T23:39:21.193Z,99332.06
2023-03-06T23:42:23.779Z,99328.84
2023-03-06T23:45:27.377Z,99319.22
2023-03-06T23:48:29.954Z,99294.38
2023-03-06T23:51:32.598Z,99307.69
2023-03-06T23:54:35.824Z,99332.06
2023-03-06T23:57:38.430Z,99330.44
